sensor_id;sensor_type;location;lat;lon;timestamp;noise_LAeq;noise_LA_min;noise_LA_max;noise_LA01;noise_LA95
45651;Laerm;31365;48.858;8.530;2023-02-23T00:02:22;37.77;30.89;45.04;;
45651;Laerm;31365;48.858;8.530;2023-02-23T00:04:50;37.69;31.68;41.68;;
45651;Laerm;31365;48.858;8.530;2023-02-23T00:07:19;38.20;32.93;42.53;;
45651;Laerm;31365;48.858;8.530;2023-02-23T00:09:48;37.12;28.67;41.75;;
45651;Laerm;31365;48.858;8.530;2023-02-23T00:12:18;36.65;26.91;46.18;;
45651;Laerm;31365;48.858;8.530;2023-02-23T00:14:47;37.78;28.67;48.36;;
45651;Laerm;31365;48.858;8.530;2023-02-23T00:17:16;38.68;28.67;50.85;;
45651;Laerm;31365;48.858;8.530;2023-02-23T00:19:46;36.49;29.92;44.65;;
45651;Laerm;31365;48.858;8.530;2023-02-23T00:22:15;36.61;29.92;40.43;;
45651;Laerm;31365;48.858;8.530;2023-02-23T00:24:43;51.88;29.92;71.20;;
45651;Laerm;31365;48.858;8.530;2023-02-23T00:27:15;38.33;30.89;52.51;;
45651;Laerm;31365;48.858;8.530;2023-02-23T00:29:46;37.47;30.89;42.82;;
45651;Laerm;31365;48.858;8.530;2023-02-23T00:32:15;51.30;31.68;70.85;;
45651;Laerm;31365;48.858;8.530;2023-02-23T00:34:46;57.76;30.89;74.50;;
45651;Laerm;31365;48.858;8.530;2023-02-23T00:37:15;37.17;30.89;45.94;;
45651;Laerm;31365;48.858;8.530;2023-02-23T00:39:47;37.64;31.68;41.61;;
45651;Laerm;31365;48.858;8.530;2023-02-23T00:42:16;37.14;30.89;39.81;;
45651;Laerm;31365;48.858;8.530;2023-02-23T00:47:14;38.33;31.68;45.30;;
45651;Laerm;31365;48.858;8.530;2023-02-23T00:49:43;37.27;30.89;42.88;;
45651;Laerm;31365;48.858;8.530;2023-02-23T00:52:12;37.27;30.89;42.88;;
45651;Laerm;31365;48.858;8.530;2023-02-23T00:54:41;37.38;30.89;45.45;;
45651;Laerm;31365;48.858;8.530;2023-02-23T00:57:09;36.82;29.92;40.13;;
45651;Laerm;31365;48.858;8.530;2023-02-23T00:59:39;37.11;26.91;45.01;;
45651;Laerm;31365;48.858;8.530;2023-02-23T01:02:07;53.81;26.91;74.94;;
45651;Laerm;31365;48.858;8.530;2023-02-23T01:04:37;55.84;31.68;76.11;;
45651;Laerm;31365;48.858;8.530;2023-02-23T01:07:05;37.70;30.89;44.39;;
45651;Laerm;31365;48.858;8.530;2023-02-23T01:09:34;37.70;31.68;44.87;;
45651;Laerm;31365;48.858;8.530;2023-02-23T01:14:35;37.09;30.89;40.08;;
45651;Laerm;31365;48.858;8.530;2023-02-23T01:17:06;55.96;32.35;76.79;;
45651;Laerm;31365;48.858;8.530;2023-02-23T01:19:35;36.90;29.92;45.99;;
45651;Laerm;31365;48.858;8.530;2023-02-23T01:22:04;53.96;30.89;75.97;;
45651;Laerm;31365;48.858;8.530;2023-02-23T01:27:03;36.87;28.67;45.97;;
45651;Laerm;31365;48.858;8.530;2023-02-23T01:29:32;37.08;29.92;40.33;;
45651;Laerm;31365;48.858;8.530;2023-02-23T01:32:01;37.94;30.89;44.87;;
45651;Laerm;31365;48.858;8.530;2023-02-23T01:34:32;38.59;31.68;45.33;;
45651;Laerm;31365;48.858;8.530;2023-02-23T01:37:02;60.11;32.35;80.01;;
45651;Laerm;31365;48.858;8.530;2023-02-23T01:39:31;37.25;29.92;43.63;;
45651;Laerm;31365;48.858;8.530;2023-02-23T01:42:01;36.99;31.68;39.92;;
45651;Laerm;31365;48.858;8.530;2023-02-23T01:47:50;55.12;29.92;72.52;;
45651;Laerm;31365;48.858;8.530;2023-02-23T01:50:23;37.46;30.89;41.19;;
45651;Laerm;31365;48.858;8.530;2023-02-23T01:52:54;37.45;30.89;40.62;;
45651;Laerm;31365;48.858;8.530;2023-02-23T01:55:22;37.16;30.89;40.23;;
45651;Laerm;31365;48.858;8.530;2023-02-23T01:58:00;37.38;29.92;41.82;;
45651;Laerm;31365;48.858;8.530;2023-02-23T02:00:31;38.53;30.89;44.90;;
45651;Laerm;31365;48.858;8.530;2023-02-23T02:03:07;37.84;29.92;41.38;;
45651;Laerm;31365;48.858;8.530;2023-02-23T02:05:39;37.31;30.89;40.62;;
45651;Laerm;31365;48.858;8.530;2023-02-23T02:08:08;37.32;31.68;41.89;;
45651;Laerm;31365;48.858;8.530;2023-02-23T02:10:37;50.49;29.92;68.40;;
45651;Laerm;31365;48.858;8.530;2023-02-23T02:13:19;38.59;32.93;42.88;;
45651;Laerm;31365;48.858;8.530;2023-02-23T02:16:26;37.95;30.89;45.07;;
45651;Laerm;31365;48.858;8.530;2023-02-23T02:19:11;51.38;32.35;69.62;;
45651;Laerm;31365;48.858;8.530;2023-02-23T02:25:23;39.87;30.89;51.19;;
45651;Laerm;31365;48.858;8.530;2023-02-23T02:28:13;63.70;31.68;84.01;;
45651;Laerm;31365;48.858;8.530;2023-02-23T02:31:03;42.57;28.67;58.13;;
45651;Laerm;31365;48.858;8.530;2023-02-23T02:37:02;37.71;31.68;40.71;;
45651;Laerm;31365;48.858;8.530;2023-02-23T02:39:41;37.73;32.93;41.89;;
45651;Laerm;31365;48.858;8.530;2023-02-23T02:42:19;38.55;32.93;44.23;;
45651;Laerm;31365;48.858;8.530;2023-02-23T02:44:56;39.45;32.35;44.90;;
45651;Laerm;31365;48.858;8.530;2023-02-23T02:50:02;38.76;32.93;46.66;;
45651;Laerm;31365;48.858;8.530;2023-02-23T02:52:38;52.91;35.04;73.16;;
45651;Laerm;31365;48.858;8.530;2023-02-23T02:55:13;39.88;33.44;44.97;;
45651;Laerm;31365;48.858;8.530;2023-02-23T02:57:43;57.39;32.35;76.09;;
45651;Laerm;31365;48.858;8.530;2023-02-23T03:00:17;38.60;31.68;44.58;;
45651;Laerm;31365;48.858;8.530;2023-02-23T03:03:04;37.97;31.68;43.34;;
45651;Laerm;31365;48.858;8.530;2023-02-23T03:05:51;58.72;32.35;81.06;;
45651;Laerm;31365;48.858;8.530;2023-02-23T03:11:37;55.04;33.44;76.76;;
45651;Laerm;31365;48.858;8.530;2023-02-23T03:14:28;63.73;32.35;84.30;;
45651;Laerm;31365;48.858;8.530;2023-02-23T03:17:24;38.34;32.35;44.23;;
45651;Laerm;31365;48.858;8.530;2023-02-23T03:20:18;39.49;32.93;52.36;;
45651;Laerm;31365;48.858;8.530;2023-02-23T03:23:11;52.57;32.58;71.08;;
45651;Laerm;31365;48.858;8.530;2023-02-23T03:26:07;37.85;31.68;41.46;;
45651;Laerm;31365;48.858;8.530;2023-02-23T03:29:00;62.26;33.90;83.02;;
45651;Laerm;31365;48.858;8.530;2023-02-23T03:31:52;54.97;35.36;73.27;;
45651;Laerm;31365;48.858;8.530;2023-02-23T03:34:43;58.44;34.69;77.24;;
45651;Laerm;31365;48.858;8.530;2023-02-23T03:37:36;52.44;34.31;68.64;;
45651;Laerm;31365;48.858;8.530;2023-02-23T03:40:25;57.55;33.44;79.00;;
45651;Laerm;31365;48.858;8.530;2023-02-23T03:43:17;52.26;33.44;73.02;;
45651;Laerm;31365;48.858;8.530;2023-02-23T03:46:05;44.75;33.90;58.19;;
45651;Laerm;31365;48.858;8.530;2023-02-23T03:48:56;51.78;33.44;72.32;;
45651;Laerm;31365;48.858;8.530;2023-02-23T03:51:49;54.20;33.44;76.02;;
45651;Laerm;31365;48.858;8.530;2023-02-23T03:54:39;50.60;34.31;72.14;;
45651;Laerm;31365;48.858;8.530;2023-02-23T03:57:27;55.83;34.31;73.83;;
45651;Laerm;31365;48.858;8.530;2023-02-23T04:00:19;53.81;34.31;76.65;;
45651;Laerm;31365;48.858;8.530;2023-02-23T04:03:08;39.62;34.31;47.38;;
45651;Laerm;31365;48.858;8.530;2023-02-23T04:05:56;59.01;35.66;77.93;;
45651;Laerm;31365;48.858;8.530;2023-02-23T04:08:42;39.52;35.04;44.47;;
45651;Laerm;31365;48.858;8.530;2023-02-23T04:11:34;58.03;35.94;77.01;;
45651;Laerm;31365;48.858;8.530;2023-02-23T04:14:28;61.62;35.94;83.89;;
45651;Laerm;31365;48.858;8.530;2023-02-23T04:16:59;54.75;36.20;75.50;;
45651;Laerm;31365;48.858;8.530;2023-02-23T04:19:28;51.22;35.01;68.63;;
45651;Laerm;31365;48.858;8.530;2023-02-23T04:21:56;60.72;35.36;79.10;;
45651;Laerm;31365;48.858;8.530;2023-02-23T04:24:24;59.13;36.20;76.45;;
45651;Laerm;31365;48.858;8.530;2023-02-23T04:26:53;63.29;35.36;83.92;;
45651;Laerm;31365;48.858;8.530;2023-02-23T04:29:21;53.93;33.90;76.73;;
45651;Laerm;31365;48.858;8.530;2023-02-23T04:31:50;61.37;35.94;82.33;;
45651;Laerm;31365;48.858;8.530;2023-02-23T04:34:21;60.63;35.36;77.87;;
45651;Laerm;31365;48.858;8.530;2023-02-23T04:36:51;60.07;36.69;77.11;;
45651;Laerm;31365;48.858;8.530;2023-02-23T04:39:19;60.30;35.59;75.98;;
45651;Laerm;31365;48.858;8.530;2023-02-23T04:41:47;58.60;35.94;78.27;;
45651;Laerm;31365;48.858;8.530;2023-02-23T04:44:16;63.81;35.04;79.70;;
45651;Laerm;31365;48.858;8.530;2023-02-23T04:46:44;57.14;41.75;76.68;;
45651;Laerm;31365;48.858;8.530;2023-02-23T04:49:12;64.17;36.91;80.14;;
45651;Laerm;31365;48.858;8.530;2023-02-23T04:51:42;57.77;36.69;75.31;;
45651;Laerm;31365;48.858;8.530;2023-02-23T04:54:10;64.55;40.23;79.96;;
45651;Laerm;31365;48.858;8.530;2023-02-23T04:56:38;66.44;39.46;82.82;;
45651;Laerm;31365;48.858;8.530;2023-02-23T04:59:06;60.81;39.58;76.24;;
45651;Laerm;31365;48.858;8.530;2023-02-23T05:01:34;57.96;37.52;73.87;;
45651;Laerm;31365;48.858;8.530;2023-02-23T05:04:03;65.74;43.58;82.66;;
45651;Laerm;31365;48.858;8.530;2023-02-23T05:06:31;64.60;38.37;82.37;;
45651;Laerm;31365;48.858;8.530;2023-02-23T05:09:01;60.80;39.34;76.28;;
45651;Laerm;31365;48.858;8.530;2023-02-23T05:11:32;62.11;38.21;76.33;;
45651;Laerm;31365;48.858;8.530;2023-02-23T05:14:00;63.07;39.92;77.41;;
45651;Laerm;31365;48.858;8.530;2023-02-23T05:16:29;62.38;37.70;76.75;;
45651;Laerm;31365;48.858;8.530;2023-02-23T05:18:57;63.87;38.81;80.96;;
45651;Laerm;31365;48.858;8.530;2023-02-23T05:21:26;62.85;38.21;81.32;;
45651;Laerm;31365;48.858;8.530;2023-02-23T05:23:54;66.02;41.06;79.28;;
45651;Laerm;31365;48.858;8.530;2023-02-23T05:26:24;66.17;41.22;80.68;;
45651;Laerm;31365;48.858;8.530;2023-02-23T05:28:52;64.37;41.61;78.71;;
45651;Laerm;31365;48.858;8.530;2023-02-23T05:31:23;62.62;41.30;78.35;;
45651;Laerm;31365;48.858;8.530;2023-02-23T05:33:52;62.91;39.58;79.21;;
45651;Laerm;31365;48.858;8.530;2023-02-23T05:36:20;62.91;39.58;79.21;;
45651;Laerm;31365;48.858;8.530;2023-02-23T05:38:49;63.80;41.30;77.43;;
45651;Laerm;31365;48.858;8.530;2023-02-23T05:41:19;63.93;40.89;77.45;;
45651;Laerm;31365;48.858;8.530;2023-02-23T05:43:50;65.51;42.16;78.70;;
45651;Laerm;31365;48.858;8.530;2023-02-23T05:46:21;65.33;43.29;78.50;;
45651;Laerm;31365;48.858;8.530;2023-02-23T05:48:50;63.89;42.29;78.96;;
45651;Laerm;31365;48.858;8.530;2023-02-23T05:51:19;68.13;42.03;87.24;;
45651;Laerm;31365;48.858;8.530;2023-02-23T05:53:47;66.70;42.88;82.28;;
45651;Laerm;31365;48.858;8.530;2023-02-23T05:56:17;65.81;42.09;80.03;;
45651;Laerm;31365;48.858;8.530;2023-02-23T05:58:47;62.38;37.32;79.51;;
45651;Laerm;31365;48.858;8.530;2023-02-23T06:01:18;62.87;39.46;79.45;;
45651;Laerm;31365;48.858;8.530;2023-02-23T06:03:47;63.17;41.30;77.52;;
45651;Laerm;31365;48.858;8.530;2023-02-23T06:06:16;66.04;43.63;84.23;;
45651;Laerm;31365;48.858;8.530;2023-02-23T06:08:45;67.79;42.41;91.16;;
45651;Laerm;31365;48.858;8.530;2023-02-23T06:11:13;66.98;42.65;84.96;;
45651;Laerm;31365;48.858;8.530;2023-02-23T06:13:43;65.47;42.76;80.04;;
45651;Laerm;31365;48.858;8.530;2023-02-23T06:16:11;64.58;41.38;81.17;;
45651;Laerm;31365;48.858;8.530;2023-02-23T06:18:41;63.91;41.14;76.55;;
45651;Laerm;31365;48.858;8.530;2023-02-23T06:21:09;65.80;43.44;78.40;;
45651;Laerm;31365;48.858;8.530;2023-02-23T06:23:37;64.78;40.13;78.10;;
45651;Laerm;31365;48.858;8.530;2023-02-23T06:26:05;68.91;42.53;87.28;;
45651;Laerm;31365;48.858;8.530;2023-02-23T06:28:34;64.50;41.96;79.98;;
45651;Laerm;31365;48.858;8.530;2023-02-23T06:31:02;65.41;44.19;78.54;;
45651;Laerm;31365;48.858;8.530;2023-02-23T06:33:31;65.27;44.43;78.70;;
45651;Laerm;31365;48.858;8.530;2023-02-23T06:36:00;66.17;44.19;77.21;;
45651;Laerm;31365;48.858;8.530;2023-02-23T06:38:28;64.06;41.53;80.82;;
45651;Laerm;31365;48.858;8.530;2023-02-23T06:40:56;64.95;41.61;76.22;;
45651;Laerm;31365;48.858;8.530;2023-02-23T06:43:24;62.97;42.22;82.78;;
45651;Laerm;31365;48.858;8.530;2023-02-23T06:45:52;64.94;43.77;77.39;;
45651;Laerm;31365;48.858;8.530;2023-02-23T06:48:21;64.85;41.61;81.31;;
45651;Laerm;31365;48.858;8.530;2023-02-23T06:50:49;64.27;43.24;78.06;;
45651;Laerm;31365;48.858;8.530;2023-02-23T06:53:19;64.31;43.00;77.90;;
45651;Laerm;31365;48.858;8.530;2023-02-23T06:55:48;64.25;41.96;78.60;;
45651;Laerm;31365;48.858;8.530;2023-02-23T06:58:17;63.72;43.19;75.91;;
45651;Laerm;31365;48.858;8.530;2023-02-23T07:00:45;65.14;39.11;78.67;;
45651;Laerm;31365;48.858;8.530;2023-02-23T07:03:14;63.13;41.61;75.47;;
45651;Laerm;31365;48.858;8.530;2023-02-23T07:05:42;63.13;40.43;80.10;;
45651;Laerm;31365;48.858;8.530;2023-02-23T07:08:10;60.44;39.08;79.48;;
45651;Laerm;31365;48.858;8.530;2023-02-23T07:10:39;67.94;43.24;82.98;;
45651;Laerm;31365;48.858;8.530;2023-02-23T07:13:08;64.71;41.53;78.84;;
45651;Laerm;31365;48.858;8.530;2023-02-23T07:15:40;64.53;40.43;82.55;;
45651;Laerm;31365;48.858;8.530;2023-02-23T07:18:08;66.12;42.88;79.53;;
45651;Laerm;31365;48.858;8.530;2023-02-23T07:20:36;61.85;41.61;77.37;;
45651;Laerm;31365;48.858;8.530;2023-02-23T07:23:05;65.89;43.54;78.93;;
45651;Laerm;31365;48.858;8.530;2023-02-23T07:25:33;66.97;44.15;83.52;;
45651;Laerm;31365;48.858;8.530;2023-02-23T07:28:03;66.58;44.23;83.05;;
45651;Laerm;31365;48.858;8.530;2023-02-23T07:30:31;65.81;43.39;80.28;;
45651;Laerm;31365;48.858;8.530;2023-02-23T07:33:00;61.90;38.37;77.33;;
45651;Laerm;31365;48.858;8.530;2023-02-23T07:35:30;64.93;42.53;79.53;;
45651;Laerm;31365;48.858;8.530;2023-02-23T07:37:58;63.41;41.22;77.52;;
45651;Laerm;31365;48.858;8.530;2023-02-23T07:40:26;62.99;40.33;74.79;;
45651;Laerm;31365;48.858;8.530;2023-02-23T07:42:54;61.01;39.08;75.94;;
45651;Laerm;31365;48.858;8.530;2023-02-23T07:45:24;68.92;40.89;86.06;;
45651;Laerm;31365;48.858;8.530;2023-02-23T07:47:52;65.72;41.61;83.17;;
45651;Laerm;31365;48.858;8.530;2023-02-23T07:50:20;66.77;44.54;81.91;;
45651;Laerm;31365;48.858;8.530;2023-02-23T07:52:49;64.13;41.96;76.70;;
45651;Laerm;31365;48.858;8.530;2023-02-23T07:55:17;64.94;41.61;79.34;;
45651;Laerm;31365;48.858;8.530;2023-02-23T07:57:46;60.14;41.14;76.48;;
45651;Laerm;31365;48.858;8.530;2023-02-23T08:00:15;62.36;41.89;75.32;;
45651;Laerm;31365;48.858;8.530;2023-02-23T08:02:44;61.76;43.77;77.77;;
45651;Laerm;31365;48.858;8.530;2023-02-23T08:05:13;62.55;43.34;78.26;;
45651;Laerm;31365;48.858;8.530;2023-02-23T08:07:41;62.26;41.46;80.12;;
45651;Laerm;31365;48.858;8.530;2023-02-23T08:10:10;62.92;41.61;77.53;;
45651;Laerm;31365;48.858;8.530;2023-02-23T08:12:38;63.59;41.14;76.22;;
45651;Laerm;31365;48.858;8.530;2023-02-23T08:15:08;63.90;41.61;83.39;;
45651;Laerm;31365;48.858;8.530;2023-02-23T08:17:37;59.71;37.70;77.48;;
45651;Laerm;31365;48.858;8.530;2023-02-23T08:20:08;64.68;42.16;87.76;;
45651;Laerm;31365;48.858;8.530;2023-02-23T08:22:37;65.69;45.94;82.97;;
45651;Laerm;31365;48.858;8.530;2023-02-23T08:25:15;61.96;47.50;76.61;;
45651;Laerm;31365;48.858;8.530;2023-02-23T08:27:44;62.57;48.16;78.32;;
45651;Laerm;31365;48.858;8.530;2023-02-23T08:30:13;64.97;49.85;77.14;;
45651;Laerm;31365;48.858;8.530;2023-02-23T08:32:42;63.24;50.58;77.23;;
45651;Laerm;31365;48.858;8.530;2023-02-23T08:35:12;65.47;48.46;77.54;;
45651;Laerm;31365;48.858;8.530;2023-02-23T08:37:41;64.53;49.63;78.68;;
45651;Laerm;31365;48.858;8.530;2023-02-23T08:40:10;61.30;46.64;74.71;;
45651;Laerm;31365;48.858;8.530;2023-02-23T08:42:42;62.78;49.78;77.90;;
45651;Laerm;31365;48.858;8.530;2023-02-23T08:45:10;63.44;49.14;79.40;;
45651;Laerm;31365;48.858;8.530;2023-02-23T08:47:39;63.28;48.52;80.53;;
45651;Laerm;31365;48.858;8.530;2023-02-23T08:50:08;66.32;47.91;83.22;;
45651;Laerm;31365;48.858;8.530;2023-02-23T08:52:39;63.98;48.20;77.07;;
45651;Laerm;31365;48.858;8.530;2023-02-23T08:55:09;63.78;46.76;79.85;;
45651;Laerm;31365;48.858;8.530;2023-02-23T08:57:37;61.07;45.69;75.12;;
45651;Laerm;31365;48.858;8.530;2023-02-23T09:00:06;62.46;45.91;76.95;;
45651;Laerm;31365;48.858;8.530;2023-02-23T09:02:39;66.10;49.56;86.63;;
45651;Laerm;31365;48.858;8.530;2023-02-23T09:05:08;62.01;46.52;76.31;;
45651;Laerm;31365;48.858;8.530;2023-02-23T09:07:39;64.29;51.06;76.62;;
45651;Laerm;31365;48.858;8.530;2023-02-23T09:10:11;63.14;45.60;78.45;;
45651;Laerm;31365;48.858;8.530;2023-02-23T09:12:40;64.71;48.40;77.88;;
45651;Laerm;31365;48.858;8.530;2023-02-23T09:15:09;63.75;49.14;76.60;;
45651;Laerm;31365;48.858;8.530;2023-02-23T09:17:37;63.67;47.06;78.43;;
45651;Laerm;31365;48.858;8.530;2023-02-23T09:20:06;63.97;47.91;78.16;;
45651;Laerm;31365;48.858;8.530;2023-02-23T09:22:35;62.71;45.11;76.34;;
45651;Laerm;31365;48.858;8.530;2023-02-23T09:25:05;68.11;43.29;85.77;;
45651;Laerm;31365;48.858;8.530;2023-02-23T09:27:34;66.92;40.53;87.64;;
45651;Laerm;31365;48.858;8.530;2023-02-23T09:30:03;64.32;40.03;83.66;;
45651;Laerm;31365;48.858;8.530;2023-02-23T09:32:31;61.86;40.13;76.43;;
45651;Laerm;31365;48.858;8.530;2023-02-23T09:34:59;61.80;41.53;80.32;;
45651;Laerm;31365;48.858;8.530;2023-02-23T09:37:27;66.97;42.76;85.76;;
45651;Laerm;31365;48.858;8.530;2023-02-23T09:39:55;60.68;40.03;80.14;;
45651;Laerm;31365;48.858;8.530;2023-02-23T09:42:32;64.03;41.68;78.32;;
45651;Laerm;31365;48.858;8.530;2023-02-23T09:45:17;64.31;43.86;77.58;;
45651;Laerm;31365;48.858;8.530;2023-02-23T09:47:57;63.31;42.16;83.12;;
45651;Laerm;31365;48.858;8.530;2023-02-23T09:50:30;60.91;41.96;77.19;;
45651;Laerm;31365;48.858;8.530;2023-02-23T09:53:02;65.71;42.22;81.08;;
45651;Laerm;31365;48.858;8.530;2023-02-23T09:55:31;65.43;40.71;82.18;;
45651;Laerm;31365;48.858;8.530;2023-02-23T09:58:04;62.77;40.62;83.17;;
45651;Laerm;31365;48.858;8.530;2023-02-23T10:00:37;62.84;49.45;78.11;;
45651;Laerm;31365;48.858;8.530;2023-02-23T10:03:16;59.43;48.08;76.80;;
45651;Laerm;31365;48.858;8.530;2023-02-23T10:05:50;64.26;41.14;83.18;;
45651;Laerm;31365;48.858;8.530;2023-02-23T10:08:32;64.36;39.57;80.49;;
45651;Laerm;31365;48.858;8.530;2023-02-23T10:11:15;64.34;40.23;81.61;;
45651;Laerm;31365;48.858;8.530;2023-02-23T10:13:55;59.44;39.46;74.77;;
45651;Laerm;31365;48.858;8.530;2023-02-23T10:16:35;63.77;40.98;82.47;;
45651;Laerm;31365;48.858;8.530;2023-02-23T10:19:12;63.33;40.33;81.32;;
45651;Laerm;31365;48.858;8.530;2023-02-23T10:21:49;64.43;40.03;83.19;;
45651;Laerm;31365;48.858;8.530;2023-02-23T10:24:24;62.40;41.14;79.18;;
45651;Laerm;31365;48.858;8.530;2023-02-23T10:26:55;60.83;38.81;73.59;;
45651;Laerm;31365;48.858;8.530;2023-02-23T10:29:31;62.16;39.81;76.38;;
45651;Laerm;31365;48.858;8.530;2023-02-23T10:32:04;60.60;38.67;75.97;;
45651;Laerm;31365;48.858;8.530;2023-02-23T10:34:34;62.44;40.53;76.44;;
45651;Laerm;31365;48.858;8.530;2023-02-23T10:37:05;62.92;38.52;81.35;;
45651;Laerm;31365;48.858;8.530;2023-02-23T10:39:36;64.16;42.76;78.49;;
45651;Laerm;31365;48.858;8.530;2023-02-23T10:42:13;60.11;39.21;73.51;;
45651;Laerm;31365;48.858;8.530;2023-02-23T10:44:44;62.49;39.81;79.80;;
45651;Laerm;31365;48.858;8.530;2023-02-23T10:47:15;63.05;39.70;77.14;;
45651;Laerm;31365;48.858;8.530;2023-02-23T10:49:45;67.11;44.35;81.39;;
45651;Laerm;31365;48.858;8.530;2023-02-23T10:52:17;62.37;39.89;79.40;;
45651;Laerm;31365;48.858;8.530;2023-02-23T10:54:48;65.88;38.95;82.23;;
45651;Laerm;31365;48.858;8.530;2023-02-23T10:57:22;64.83;38.81;85.06;;
45651;Laerm;31365;48.858;8.530;2023-02-23T11:00:21;60.21;39.34;77.25;;
45651;Laerm;31365;48.858;8.530;2023-02-23T11:02:54;64.15;41.89;78.83;;
45651;Laerm;31365;48.858;8.530;2023-02-23T11:05:31;61.83;38.21;79.15;;
45651;Laerm;31365;48.858;8.530;2023-02-23T11:08:10;63.23;43.90;78.11;;
45651;Laerm;31365;48.858;8.530;2023-02-23T11:10:40;60.23;40.23;73.20;;
45651;Laerm;31365;48.858;8.530;2023-02-23T11:13:20;62.72;40.62;78.40;;
45651;Laerm;31365;48.858;8.530;2023-02-23T11:15:58;65.40;37.88;88.84;;
45651;Laerm;31365;48.858;8.530;2023-02-23T11:18:28;59.79;38.21;77.61;;
45651;Laerm;31365;48.858;8.530;2023-02-23T11:20:56;62.50;42.22;75.07;;
45651;Laerm;31365;48.858;8.530;2023-02-23T11:23:26;62.72;39.34;75.45;;
45651;Laerm;31365;48.858;8.530;2023-02-23T11:25:58;65.11;40.53;82.09;;
45651;Laerm;31365;48.858;8.530;2023-02-23T11:28:33;67.14;43.68;86.12;;
45651;Laerm;31365;48.858;8.530;2023-02-23T11:31:12;63.38;36.56;78.99;;
45651;Laerm;31365;48.858;8.530;2023-02-23T11:36:16;62.61;39.70;76.94;;
45651;Laerm;31365;48.858;8.530;2023-02-23T11:38:44;62.63;41.81;78.84;;
45651;Laerm;31365;48.858;8.530;2023-02-23T11:41:19;60.77;38.52;76.60;;
45651;Laerm;31365;48.858;8.530;2023-02-23T11:43:49;61.84;36.69;74.24;;
45651;Laerm;31365;48.858;8.530;2023-02-23T11:46:20;66.06;37.70;85.40;;
45651;Laerm;31365;48.858;8.530;2023-02-23T11:48:51;61.63;30.89;74.70;;
45651;Laerm;31365;48.858;8.530;2023-02-23T11:51:24;62.52;40.23;77.51;;
45651;Laerm;31365;48.858;8.530;2023-02-23T11:53:54;62.78;41.75;79.46;;
45651;Laerm;31365;48.858;8.530;2023-02-23T11:56:24;62.98;40.62;76.00;;
45651;Laerm;31365;48.858;8.530;2023-02-23T11:58:54;60.90;39.34;77.09;;
45651;Laerm;31365;48.858;8.530;2023-02-23T12:01:39;65.73;43.33;80.58;;
45651;Laerm;31365;48.858;8.530;2023-02-23T12:04:23;58.70;39.92;75.26;;
45651;Laerm;31365;48.858;8.530;2023-02-23T12:10:11;62.42;38.37;77.42;;
45651;Laerm;31365;48.858;8.530;2023-02-23T12:12:52;64.38;41.14;82.90;;
45651;Laerm;31365;48.858;8.530;2023-02-23T12:15:36;63.10;40.03;78.55;;
45651;Laerm;31365;48.858;8.530;2023-02-23T12:18:16;63.30;39.92;75.56;;
45651;Laerm;31365;48.858;8.530;2023-02-23T12:20:47;63.28;39.81;81.66;;
45651;Laerm;31365;48.858;8.530;2023-02-23T12:23:23;62.39;41.53;78.60;;
45651;Laerm;31365;48.858;8.530;2023-02-23T12:25:55;62.95;43.14;75.62;;
45651;Laerm;31365;48.858;8.530;2023-02-23T12:28:30;61.17;39.92;78.57;;
45651;Laerm;31365;48.858;8.530;2023-02-23T12:33:34;66.70;39.58;88.16;;
45651;Laerm;31365;48.858;8.530;2023-02-23T12:36:13;62.32;40.23;76.26;;
45651;Laerm;31365;48.858;8.530;2023-02-23T12:38:49;61.78;40.89;75.59;;
45651;Laerm;31365;48.858;8.530;2023-02-23T12:41:34;63.23;41.46;80.48;;
45651;Laerm;31365;48.858;8.530;2023-02-23T12:44:10;64.09;42.65;76.77;;
45651;Laerm;31365;48.858;8.530;2023-02-23T12:46:45;60.51;41.88;76.48;;
45651;Laerm;31365;48.858;8.530;2023-02-23T12:49:21;67.92;44.73;84.70;;
45651;Laerm;31365;48.858;8.530;2023-02-23T12:51:57;62.23;41.61;74.95;;
45651;Laerm;31365;48.858;8.530;2023-02-23T12:54:27;61.32;42.16;77.30;;
45651;Laerm;31365;48.858;8.530;2023-02-23T12:57:01;61.19;41.75;76.51;;
45651;Laerm;31365;48.858;8.530;2023-02-23T12:59:46;65.11;41.46;77.88;;
45651;Laerm;31365;48.858;8.530;2023-02-23T13:02:21;63.15;42.93;77.94;;
45651;Laerm;31365;48.858;8.530;2023-02-23T13:05:08;60.24;40.71;74.70;;
45651;Laerm;31365;48.858;8.530;2023-02-23T13:07:49;62.55;41.22;77.16;;
45651;Laerm;31365;48.858;8.530;2023-02-23T13:10:35;62.62;41.82;74.23;;
45651;Laerm;31365;48.858;8.530;2023-02-23T13:13:15;64.27;42.71;82.10;;
45651;Laerm;31365;48.858;8.530;2023-02-23T13:15:52;63.47;42.98;79.01;;
45651;Laerm;31365;48.858;8.530;2023-02-23T13:18:27;64.09;44.23;77.22;;
45651;Laerm;31365;48.858;8.530;2023-02-23T13:21:03;61.31;41.22;74.58;;
45651;Laerm;31365;48.858;8.530;2023-02-23T13:23:35;66.81;42.41;82.27;;
45651;Laerm;31365;48.858;8.530;2023-02-23T13:26:13;66.71;43.34;86.33;;
45651;Laerm;31365;48.858;8.530;2023-02-23T13:28:51;65.06;40.03;81.54;;
45651;Laerm;31365;48.858;8.530;2023-02-23T13:31:24;61.11;38.95;74.38;;
45651;Laerm;31365;48.858;8.530;2023-02-23T13:33:55;64.12;41.82;76.35;;
45651;Laerm;31365;48.858;8.530;2023-02-23T13:36:27;63.45;39.21;80.31;;
45651;Laerm;31365;48.858;8.530;2023-02-23T13:39:12;825.21;0.00;18494647683753925093697034753859.04;;
45651;Laerm;31365;48.858;8.530;2023-02-23T13:41:56;63.36;40.53;76.77;;
45651;Laerm;31365;48.858;8.530;2023-02-23T13:44:31;62.57;40.23;79.10;;
45651;Laerm;31365;48.858;8.530;2023-02-23T13:47:07;63.82;40.23;81.43;;
45651;Laerm;31365;48.858;8.530;2023-02-23T13:49:45;61.33;40.80;76.49;;
45651;Laerm;31365;48.858;8.530;2023-02-23T13:52:22;64.88;43.04;78.49;;
45651;Laerm;31365;48.858;8.530;2023-02-23T13:54:55;64.18;39.34;80.26;;
45651;Laerm;31365;48.858;8.530;2023-02-23T13:57:29;64.98;39.34;85.03;;
45651;Laerm;31365;48.858;8.530;2023-02-23T13:59:58;61.49;39.46;76.37;;
45651;Laerm;31365;48.858;8.530;2023-02-23T14:02:35;63.65;44.90;77.23;;
45651;Laerm;31365;48.858;8.530;2023-02-23T14:05:17;65.17;44.69;76.84;;
45651;Laerm;31365;48.858;8.530;2023-02-23T14:07:50;64.31;43.34;76.71;;
45651;Laerm;31365;48.858;8.530;2023-02-23T14:10:21;63.43;41.30;78.79;;
45651;Laerm;31365;48.858;8.530;2023-02-23T14:13:06;60.50;40.23;75.18;;
45651;Laerm;31365;48.858;8.530;2023-02-23T14:15:43;64.40;43.29;79.15;;
45651;Laerm;31365;48.858;8.530;2023-02-23T14:18:30;62.50;40.23;77.28;;
45651;Laerm;31365;48.858;8.530;2023-02-23T14:21:04;66.22;41.82;80.27;;
45651;Laerm;31365;48.858;8.530;2023-02-23T14:23:48;66.88;44.19;87.52;;
45651;Laerm;31365;48.858;8.530;2023-02-23T14:26:36;63.64;39.46;77.73;;
45651;Laerm;31365;48.858;8.530;2023-02-23T14:29:20;66.36;42.41;90.12;;
45651;Laerm;31365;48.858;8.530;2023-02-23T14:31:57;59.84;38.81;74.22;;
45651;Laerm;31365;48.858;8.530;2023-02-23T14:34:47;64.23;42.09;81.05;;
45651;Laerm;31365;48.858;8.530;2023-02-23T14:37:22;68.08;43.86;84.89;;
45651;Laerm;31365;48.858;8.530;2023-02-23T14:39:54;65.72;44.83;77.98;;
45651;Laerm;31365;48.858;8.530;2023-02-23T14:42:25;66.71;40.23;85.21;;
45651;Laerm;31365;48.858;8.530;2023-02-23T14:44:57;63.42;42.35;75.04;;
45651;Laerm;31365;48.858;8.530;2023-02-23T14:47:40;63.21;40.43;77.57;;
45651;Laerm;31365;48.858;8.530;2023-02-23T14:50:13;66.04;43.28;80.17;;
45651;Laerm;31365;48.858;8.530;2023-02-23T14:52:45;66.16;44.51;77.83;;